Terminal Aerodrome Forecast
Issued by NWS

Home | Current Version | Previous Version | Text Only | Print | Product List | Glossary On
Versions: 1 2 3 4 5 6 7 8 9 10 11 12 13
000
FTUS46 KHNX 161120
TAFFAT
TAF
KFAT 161120Z 1612/1712 31010KT P6SM SKC
     FM161400 31005KT P6SM SKC
     FM170000 31009KT P6SM SKC=

USA.gov is the U.S. government's official web portal to all federal, state and local government web resources and services.